createdAt,value
2024-05-09T00:00:42.742Z,100852.19
2024-05-09T00:03:11.836Z,100854.90
2024-05-09T00:05:45.973Z,100857.76
2024-05-09T00:08:13.902Z,100864.75
2024-05-09T00:10:41.796Z,100864.05
2024-05-09T00:13:10.340Z,100863.13
2024-05-09T00:15:38.865Z,100868.10
2024-05-09T00:18:07.588Z,100867.39
2024-05-09T00:20:39.472Z,100864.30
2024-05-09T00:23:10.579Z,100862.01
2024-05-09T00:25:38.608Z,100865.10
2024-05-09T00:28:06.806Z,100869.25
2024-05-09T00:30:36.619Z,100870.64
2024-05-09T00:33:06.672Z,100872.58
2024-05-09T00:35:35.802Z,100878.26
2024-05-09T00:45:46.354Z,100867.28
2024-05-09T00:48:17.332Z,100877.23
2024-05-09T00:50:47.499Z,100877.71
2024-05-09T00:53:15.818Z,100879.30
2024-05-09T00:55:43.629Z,100879.14
2024-05-09T00:58:12.687Z,100875.87
2024-05-09T01:00:41.496Z,100873.23
2024-05-09T01:03:11.849Z,100874.98
2024-05-09T01:05:42.329Z,100873.09
2024-05-09T01:08:10.826Z,100868.98
2024-05-09T01:10:38.533Z,100865.25
2024-05-09T01:13:07.041Z,100862.86
2024-05-09T01:15:35.527Z,100859.05
2024-05-09T01:18:06.760Z,100865.33
2024-05-09T01:20:41.339Z,100865.38
2024-05-09T01:23:12.574Z,100862.56
2024-05-09T01:25:41.131Z,100864.56
2024-05-09T01:28:08.893Z,100862.68
2024-05-09T01:30:37.759Z,100866.63
2024-05-09T01:33:08.113Z,100870.16
2024-05-09T01:35:39.284Z,100872.42
2024-05-09T01:38:07.940Z,100875.05
2024-05-09T01:40:38.770Z,100870.42
2024-05-09T01:43:09.379Z,100870.68
2024-05-09T01:45:38.568Z,100869.87
2024-05-09T01:48:06.957Z,100868.90
2024-05-09T01:50:39.581Z,100868.89
2024-05-09T01:53:10.721Z,100874.64
2024-05-09T01:55:38.674Z,100879.59
2024-05-09T01:58:07.497Z,100876.48
2024-05-09T02:00:40.141Z,100877.48
2024-05-09T02:03:14.461Z,100880.81
2024-05-09T02:05:47.706Z,100879.50
2024-05-09T02:08:16.764Z,100875.54
2024-05-09T02:10:44.983Z,100876.64
2024-05-09T02:13:13.205Z,100878.70
2024-05-09T02:15:40.839Z,100880.85
2024-05-09T02:18:09.110Z,100885.17
2024-05-09T02:20:38.602Z,100889.72
2024-05-09T02:23:06.966Z,100899.04
2024-05-09T02:25:35.059Z,100894.30
2024-05-09T02:28:02.674Z,100897.96
2024-05-09T02:30:38.725Z,100900.41
2024-05-09T02:33:11.482Z,100908.11
2024-05-09T02:35:41.254Z,100909.17
2024-05-09T02:38:09.268Z,100910.35
2024-05-09T02:40:39.052Z,100914.36
2024-05-09T02:43:08.845Z,100916.40
2024-05-09T02:45:37.814Z,100921.67
2024-05-09T02:48:06.657Z,100921.48
2024-05-09T02:50:38.870Z,100924.63
2024-05-09T02:53:08.750Z,100923.16
2024-05-09T02:55:39.791Z,100924.73
2024-05-09T02:58:07.376Z,100928.12
2024-05-09T03:00:39.421Z,100927.69
2024-05-09T03:10:39.546Z,100945.42
2024-05-09T03:13:13.356Z,100945.90
2024-05-09T03:15:42.941Z,100949.42
2024-05-09T03:18:11.121Z,100950.02
2024-05-09T03:20:39.359Z,100947.54
2024-05-09T03:23:08.046Z,100934.94
2024-05-09T03:25:38.764Z,100920.67
2024-05-09T03:28:06.824Z,100897.68
2024-05-09T03:30:40.776Z,100869.54
2024-05-09T03:33:20.623Z,100848.23
2024-05-09T03:35:49.395Z,100837.87
2024-05-09T03:38:17.501Z,100840.33
2024-05-09T03:40:46.099Z,100840.70
2024-05-09T03:43:14.174Z,100842.23
2024-05-09T03:45:45.327Z,100844.64
2024-05-09T03:48:13.321Z,100844.95
2024-05-09T03:50:41.348Z,100849.09
2024-05-09T03:53:14.176Z,100853.66
2024-05-09T03:55:41.944Z,100847.54
2024-05-09T03:58:09.645Z,100849.04
2024-05-09T04:00:39.447Z,100851.32
2024-05-09T04:03:10.621Z,100857.54
2024-05-09T04:05:41.906Z,100861.65
2024-05-09T04:08:11.001Z,100864.73
2024-05-09T04:10:39.095Z,100863.93
2024-05-09T04:13:06.832Z,100867.05
2024-05-09T04:15:34.358Z,100876.38
2024-05-09T04:18:02.666Z,100885.20
2024-05-09T04:20:38.000Z,100892.56
2024-05-09T04:23:13.563Z,100894.55
2024-05-09T04:25:42.310Z,100900.75
2024-05-09T04:28:10.082Z,100898.62
2024-05-09T04:30:40.367Z,100900.05
2024-05-09T04:33:13.783Z,100903.80
2024-05-09T04:35:43.279Z,100906.65
2024-05-09T04:38:12.494Z,100913.61
2024-05-09T04:40:40.142Z,100910.43
2024-05-09T04:43:14.326Z,100909.65
2024-05-09T04:45:41.827Z,100916.59
2024-05-09T04:48:09.693Z,100918.09
2024-05-09T04:50:39.267Z,100926.89
2024-05-09T04:53:09.799Z,100929.48
2024-05-09T04:55:38.921Z,100933.89
2024-05-09T04:58:10.217Z,100932.96
2024-05-09T05:00:41.563Z,100934.23
2024-05-09T05:03:12.703Z,100928.23
2024-05-09T05:05:43.585Z,100930.98
2024-05-09T05:08:16.486Z,100930.23
2024-05-09T05:10:45.267Z,100930.91
2024-05-09T05:13:20.602Z,100928.15
2024-05-09T05:15:50.483Z,100930.25
2024-05-09T05:18:18.508Z,100937.35
2024-05-09T05:20:47.044Z,100940.31
2024-05-09T05:23:16.432Z,100936.94
2024-05-09T05:25:45.124Z,100935.30
2024-05-09T05:28:12.742Z,100938.05
2024-05-09T05:30:41.054Z,100935.86
2024-05-09T05:33:13.673Z,100937.42
2024-05-09T05:35:41.992Z,100938.27
2024-05-09T05:38:10.265Z,100939.77
2024-05-09T05:40:39.247Z,100942.46
2024-05-09T05:43:09.231Z,100935.37
2024-05-09T05:45:37.122Z,100941.45
2024-05-09T05:48:06.150Z,100940.65
2024-05-09T05:50:37.041Z,100936.60
2024-05-09T05:53:07.061Z,100932.70
2024-05-09T05:55:36.005Z,100933.27
2024-05-09T05:58:03.697Z,100933.59
2024-05-09T06:00:38.184Z,100933.33
2024-05-09T06:03:09.151Z,100927.05
2024-05-09T06:05:40.051Z,100927.78
2024-05-09T06:08:08.595Z,100925.22
2024-05-09T06:18:17.679Z,100914.69
2024-05-09T06:20:45.691Z,100916.52
2024-05-09T06:23:14.370Z,100919.70
2024-05-09T06:25:42.594Z,100917.48
2024-05-09T06:28:10.727Z,100919.90
2024-05-09T06:30:41.942Z,100923.64
2024-05-09T06:33:13.350Z,100923.89
2024-05-09T06:35:44.196Z,100928.92
2024-05-09T06:38:12.478Z,100931.91
2024-05-09T06:40:42.418Z,100933.90
2024-05-09T06:43:15.404Z,100931.79
2024-05-09T06:45:45.828Z,100932.91
2024-05-09T06:48:13.527Z,100931.27
2024-05-09T06:50:41.432Z,100935.58
2024-05-09T06:53:09.588Z,100932.96
2024-05-09T06:55:37.783Z,100931.00
2024-05-09T07:09:18.716Z,100937.89
2024-05-09T07:11:46.475Z,100941.95
2024-05-09T07:14:14.123Z,100940.31
2024-05-09T07:16:41.835Z,100938.43
2024-05-09T07:19:09.855Z,100942.36
2024-05-09T07:21:37.533Z,100948.02
2024-05-09T07:24:05.672Z,100947.72
2024-05-09T07:26:33.377Z,100947.52
2024-05-09T07:29:01.004Z,100943.40
2024-05-09T07:31:30.968Z,100942.98
2024-05-09T07:33:59.037Z,100940.36
2024-05-09T07:36:26.591Z,100941.07
2024-05-09T07:38:54.197Z,100936.33
2024-05-09T07:41:21.774Z,100942.52
2024-05-09T07:43:49.526Z,100937.05
2024-05-09T07:47:14.205Z,100937.94
2024-05-09T07:50:53.372Z,100941.89
2024-05-09T07:53:21.110Z,100938.91
2024-05-09T07:54:40.933Z,100935.39
2024-05-09T07:57:08.864Z,100932.41
2024-05-09T07:59:38.034Z,100934.36
2024-05-09T08:02:06.462Z,100929.17
2024-05-09T08:04:34.356Z,100925.30
2024-05-09T08:07:02.091Z,100923.10
2024-05-09T08:09:31.156Z,100918.30
2024-05-09T08:11:59.363Z,100918.20
2024-05-09T08:14:27.157Z,100923.41
2024-05-09T08:16:54.829Z,100922.89
2024-05-09T08:19:22.699Z,100918.66
2024-05-09T08:21:50.524Z,100914.83
2024-05-09T08:24:18.111Z,100912.81
2024-05-09T08:26:48.139Z,100904.30
2024-05-09T08:29:15.802Z,100906.73
2024-05-09T08:31:43.426Z,100907.75
2024-05-09T08:34:12.158Z,100907.13
2024-05-09T08:36:40.974Z,100906.84
2024-05-09T08:39:08.589Z,100909.23
2024-05-09T08:41:36.617Z,100900.04
2024-05-09T08:44:04.147Z,100897.50
2024-05-09T08:46:31.897Z,100897.80
2024-05-09T08:48:59.951Z,100895.98
2024-05-09T08:51:27.684Z,100900.42
2024-05-09T08:53:55.287Z,100895.73
2024-05-09T08:56:23.031Z,100905.63
2024-05-09T08:58:52.079Z,100902.58
2024-05-09T09:01:19.791Z,100895.95
2024-05-09T09:03:47.978Z,100897.16
2024-05-09T09:06:15.811Z,100892.04
2024-05-09T09:08:44.957Z,100886.30
2024-05-09T09:11:12.627Z,100888.17
2024-05-09T09:13:40.381Z,100891.11
2024-05-09T09:16:08.107Z,100886.17
2024-05-09T09:18:36.108Z,100886.78
2024-05-09T09:21:04.270Z,100881.27
2024-05-09T09:23:31.938Z,100879.74
2024-05-09T09:26:00.332Z,100878.86
2024-05-09T09:28:28.205Z,100873.73
2024-05-09T09:31:02.372Z,100878.02
2024-05-09T09:33:36.022Z,100883.60
2024-05-09T09:36:06.850Z,100875.36
2024-05-09T09:38:36.861Z,100872.23
2024-05-09T09:41:06.943Z,100872.36
2024-05-09T09:43:37.089Z,100868.52
2024-05-09T09:46:06.317Z,100864.06
2024-05-09T09:48:36.654Z,100863.98
2024-05-09T09:51:04.698Z,100858.66
2024-05-09T09:53:32.255Z,100856.55
2024-05-09T09:55:59.812Z,100859.90
2024-05-09T09:58:28.383Z,100857.19
2024-05-09T10:00:56.268Z,100856.65
2024-05-09T10:03:24.172Z,100852.52
2024-05-09T10:05:53.270Z,100851.20
2024-05-09T10:08:22.213Z,100853.70
2024-05-09T10:10:50.554Z,100849.14
2024-05-09T10:13:20.114Z,100845.86
2024-05-09T10:15:54.255Z,100847.56
2024-05-09T10:18:27.304Z,100847.83
2024-05-09T10:20:57.079Z,100845.09
2024-05-09T10:23:31.571Z,100843.55
2024-05-09T10:26:03.683Z,100846.23
2024-05-09T10:28:32.708Z,100838.24
2024-05-09T10:31:09.954Z,100834.98
2024-05-09T10:33:46.209Z,100834.79
2024-05-09T10:36:15.099Z,100832.48
2024-05-09T10:38:42.934Z,100831.91
2024-05-09T10:41:11.103Z,100829.41
2024-05-09T10:43:39.313Z,100825.48
2024-05-09T10:46:07.061Z,100821.13
2024-05-09T10:48:34.990Z,100819.59
2024-05-09T10:51:02.759Z,100819.17
2024-05-09T10:53:41.092Z,100818.05
2024-05-09T10:56:09.259Z,100814.32
2024-05-09T10:58:37.020Z,100819.60
2024-05-09T11:01:07.046Z,100815.72
2024-05-09T11:03:35.974Z,100806.52
2024-05-09T11:06:04.056Z,100805.11
2024-05-09T11:08:32.739Z,100803.95
2024-05-09T11:11:00.596Z,100802.34
2024-05-09T11:13:32.333Z,100802.86
2024-05-09T11:16:00.305Z,100802.85
2024-05-09T11:18:32.284Z,100804.56
2024-05-09T11:21:03.489Z,100799.69
2024-05-09T11:23:31.559Z,100800.19
2024-05-09T11:25:59.347Z,100797.29
2024-05-09T11:28:30.996Z,100796.77
2024-05-09T11:31:06.842Z,100797.41
2024-05-09T11:33:41.861Z,100795.77
2024-05-09T11:36:09.799Z,100796.67
2024-05-09T11:38:37.386Z,100797.66
2024-05-09T11:41:05.331Z,100795.95
2024-05-09T11:43:33.265Z,100787.41
2024-05-09T11:46:02.654Z,100789.68
2024-05-09T11:48:30.945Z,100783.82
2024-05-09T11:50:58.890Z,100781.80
2024-05-09T11:53:26.433Z,100781.48
2024-05-09T11:55:54.135Z,100776.02
2024-05-09T11:58:23.032Z,100776.39
2024-05-09T12:00:51.295Z,100774.41
2024-05-09T12:03:18.993Z,100773.52
2024-05-09T12:05:46.717Z,100772.70
2024-05-09T12:08:14.704Z,100772.67
2024-05-09T12:10:42.626Z,100774.02
2024-05-09T12:13:10.407Z,100773.92
2024-05-09T12:15:38.976Z,100771.63
2024-05-09T12:18:07.737Z,100769.08
2024-05-09T12:20:39.139Z,100767.94
2024-05-09T12:23:09.412Z,100763.79
2024-05-09T12:25:38.584Z,100757.48
2024-05-09T12:28:07.609Z,100759.33
2024-05-09T12:30:39.745Z,100762.45
2024-05-09T12:33:13.075Z,100755.79
2024-05-09T12:35:44.116Z,100758.48
2024-05-09T12:38:14.922Z,100754.29
2024-05-09T12:40:43.040Z,100758.70
2024-05-09T12:43:11.655Z,100751.97
2024-05-09T12:45:40.346Z,100750.33
2024-05-09T12:48:11.364Z,100753.36
2024-05-09T12:50:39.945Z,100751.27
2024-05-09T12:59:08.781Z,100744.85
2024-05-09T13:01:36.563Z,100745.88
2024-05-09T13:04:04.842Z,100740.84
2024-05-09T13:06:32.652Z,100742.27
2024-05-09T13:09:00.201Z,100743.85
2024-05-09T13:11:27.821Z,100744.68
2024-05-09T13:13:55.493Z,100743.14
2024-05-09T13:16:23.224Z,100748.64
2024-05-09T13:18:51.084Z,100749.70
2024-05-09T13:21:18.755Z,100748.23
2024-05-09T13:23:46.520Z,100742.48
2024-05-09T13:26:14.109Z,100739.70
2024-05-09T13:28:41.743Z,100738.81
2024-05-09T13:31:09.366Z,100740.96
2024-05-09T13:33:37.211Z,100745.19
2024-05-09T13:36:05.393Z,100743.30
2024-05-09T13:38:32.928Z,100740.73
2024-05-09T13:41:00.554Z,100744.92
2024-05-09T13:43:28.336Z,100739.97
2024-05-09T13:45:57.425Z,100734.95
2024-05-09T13:48:25.318Z,100729.58
2024-05-09T13:50:53.203Z,100728.46
2024-05-09T13:53:20.832Z,100731.66
2024-05-09T13:55:48.408Z,100732.02
2024-05-09T13:58:16.091Z,100734.30
2024-05-09T14:00:48.192Z,100734.58
2024-05-09T14:03:18.762Z,100734.77
2024-05-09T14:05:49.651Z,100735.46
2024-05-09T14:08:19.966Z,100734.13
2024-05-09T14:10:48.699Z,100729.15
2024-05-09T14:13:16.663Z,100731.33
2024-05-09T14:15:44.748Z,100728.28
2024-05-09T14:18:13.958Z,100724.08
2024-05-09T14:20:42.919Z,100726.70
2024-05-09T14:23:10.647Z,100724.43
2024-05-09T14:33:20.383Z,100721.66
2024-05-09T14:35:48.024Z,100724.90
2024-05-09T14:38:15.664Z,100725.73
2024-05-09T14:40:44.276Z,100722.75
2024-05-09T14:43:12.842Z,100727.81
2024-05-09T14:45:41.488Z,100724.23
2024-05-09T14:48:09.996Z,100722.17
2024-05-09T14:50:39.874Z,100720.38
2024-05-09T14:53:09.924Z,100721.15
2024-05-09T14:55:39.316Z,100719.13
2024-05-09T14:58:08.259Z,100722.70
2024-05-09T15:00:40.329Z,100721.98
2024-05-09T15:03:10.881Z,100726.31
2024-05-09T15:05:38.875Z,100724.86
2024-05-09T15:08:07.171Z,100725.82
2024-05-09T15:10:36.569Z,100722.45
2024-05-09T15:13:06.581Z,100721.56
2024-05-09T15:15:36.189Z,100722.29
2024-05-09T15:18:05.048Z,100721.73
2024-05-09T15:20:36.112Z,100726.99
2024-05-09T15:23:05.525Z,100727.91
2024-05-09T15:25:33.879Z,100725.00
2024-05-09T15:28:01.784Z,100722.72
2024-05-09T15:30:32.334Z,100725.09
2024-05-09T15:33:04.189Z,100721.43
2024-05-09T15:35:33.492Z,100718.26
2024-05-09T15:38:02.556Z,100723.19
2024-05-09T15:40:37.496Z,100721.52
2024-05-09T15:43:09.307Z,100720.05
2024-05-09T15:45:38.615Z,100717.52
2024-05-09T15:48:07.483Z,100717.20
2024-05-09T15:50:39.428Z,100717.39
2024-05-09T15:53:10.427Z,100716.02
2024-05-09T15:55:38.721Z,100720.20
2024-05-09T15:58:07.223Z,100718.17
2024-05-09T16:00:39.569Z,100721.85
2024-05-09T16:03:11.078Z,100722.04
2024-05-09T16:05:40.948Z,100720.77
2024-05-09T16:08:09.258Z,100721.92
2024-05-09T16:10:41.579Z,100724.93
2024-05-09T16:13:11.260Z,100723.65
2024-05-09T16:15:39.169Z,100730.02
2024-05-09T16:18:07.361Z,100729.91
2024-05-09T16:20:40.007Z,100734.31
2024-05-09T16:23:10.300Z,100735.91
2024-05-09T16:25:39.483Z,100736.00
2024-05-09T16:28:10.157Z,100736.44
2024-05-09T16:30:39.385Z,100735.04
2024-05-09T16:33:08.437Z,100735.64
2024-05-09T16:35:37.476Z,100737.22
2024-05-09T16:38:08.584Z,100739.27
2024-05-09T16:40:39.902Z,100736.27
2024-05-09T16:43:10.885Z,100737.30
2024-05-09T16:45:46.125Z,100739.02
2024-05-09T16:48:14.571Z,100743.61
2024-05-09T16:50:42.867Z,100746.33
2024-05-09T16:53:10.420Z,100748.54
2024-05-09T16:55:38.708Z,100746.98
2024-05-09T16:58:11.978Z,100746.16
2024-05-09T17:00:43.318Z,100752.89
2024-05-09T17:03:14.228Z,100749.41
2024-05-09T17:05:43.928Z,100755.09
2024-05-09T17:08:11.739Z,100757.91
2024-05-09T17:10:39.479Z,100758.80
2024-05-09T17:13:08.769Z,100760.90
2024-05-09T17:15:37.446Z,100759.64
2024-05-09T17:18:06.970Z,100764.03
2024-05-09T17:20:36.986Z,100769.84
2024-05-09T17:23:12.109Z,100772.23
2024-05-09T17:25:40.353Z,100774.86
2024-05-09T17:28:09.411Z,100776.48
2024-05-09T17:30:39.074Z,100778.96
2024-05-09T17:33:09.636Z,100781.85
2024-05-09T17:35:38.389Z,100787.59
2024-05-09T17:38:06.356Z,100786.92
2024-05-09T17:40:36.687Z,100790.56
2024-05-09T17:43:08.436Z,100792.40
2024-05-09T17:45:39.454Z,100793.14
2024-05-09T17:48:09.575Z,100800.48
2024-05-09T17:50:38.150Z,100800.00
2024-05-09T17:53:06.633Z,100802.91
2024-05-09T17:55:35.120Z,100805.75
2024-05-09T17:58:04.255Z,100807.88
2024-05-09T18:00:38.696Z,100808.52
2024-05-09T18:03:13.335Z,100812.94
2024-05-09T18:05:43.441Z,100812.55
2024-05-09T18:08:12.683Z,100816.33
2024-05-09T18:10:41.388Z,100816.55
2024-05-09T18:13:09.804Z,100822.15
2024-05-09T18:15:38.199Z,100825.72
2024-05-09T18:18:06.579Z,100827.17
2024-05-09T18:20:42.047Z,100826.29
2024-05-09T18:23:14.171Z,100826.15
2024-05-09T18:25:42.715Z,100830.39
2024-05-09T18:28:10.324Z,100829.27
2024-05-09T18:30:39.082Z,100831.18
2024-05-09T18:33:08.187Z,100830.35
2024-05-09T18:35:36.770Z,100832.46
2024-05-09T18:38:05.585Z,100835.92
2024-05-09T18:40:36.537Z,100837.88
2024-05-09T18:43:07.552Z,100838.95
2024-05-09T18:45:38.137Z,100835.60
2024-05-09T18:48:08.192Z,100837.23
2024-05-09T18:50:39.309Z,100837.20
2024-05-09T18:53:10.366Z,100839.36
2024-05-09T18:55:38.715Z,100840.73
2024-05-09T18:58:06.946Z,100844.80
2024-05-09T19:00:37.863Z,100850.77
2024-05-09T19:03:10.272Z,100850.91
2024-05-09T19:05:41.243Z,100851.69
2024-05-09T19:08:09.778Z,100852.85
2024-05-09T19:10:38.372Z,100848.97
2024-05-09T19:13:10.941Z,100853.05
2024-05-09T19:15:41.511Z,100853.05
2024-05-09T19:18:10.077Z,100853.85
2024-05-09T19:20:38.505Z,100854.60
2024-05-09T19:23:07.072Z,100854.71
2024-05-09T19:25:35.855Z,100856.04
2024-05-09T19:28:04.929Z,100857.97
2024-05-09T19:30:39.271Z,100862.70
2024-05-09T19:33:12.301Z,100861.06
2024-05-09T19:35:40.988Z,100865.70
2024-05-09T19:38:08.505Z,100866.55
2024-05-09T19:40:36.371Z,100866.79
2024-05-09T19:43:05.135Z,100869.75
2024-05-09T19:45:35.020Z,100869.63
2024-05-09T19:48:04.004Z,100872.52
2024-05-09T19:50:39.823Z,100875.31
2024-05-09T19:53:12.094Z,100874.39
2024-05-09T19:55:40.348Z,100875.39
2024-05-09T19:58:10.023Z,100880.27
2024-05-09T20:00:40.262Z,100875.81
2024-05-09T20:03:11.513Z,100877.08
2024-05-09T20:05:39.748Z,100878.34
2024-05-09T20:08:07.821Z,100874.88
2024-05-09T20:10:36.583Z,100878.70
2024-05-09T20:13:06.309Z,100878.85
2024-05-09T20:15:35.609Z,100881.15
2024-05-09T20:18:03.815Z,100881.31
2024-05-09T20:20:37.975Z,100883.16
2024-05-09T20:23:10.055Z,100883.64
2024-05-09T20:25:37.713Z,100882.83
2024-05-09T20:28:06.114Z,100884.66
2024-05-09T20:30:34.643Z,100887.95
2024-05-09T20:33:04.231Z,100889.38
2024-05-09T20:35:33.273Z,100888.26
2024-05-09T20:38:01.537Z,100886.47
2024-05-09T20:40:34.003Z,100887.40
2024-05-09T20:43:05.741Z,100889.41
2024-05-09T20:45:34.160Z,100892.44
2024-05-09T20:48:02.109Z,100886.36
2024-05-09T20:50:37.231Z,100887.09
2024-05-09T20:53:09.308Z,100890.96
2024-05-09T20:55:36.983Z,100892.63
2024-05-09T20:58:04.764Z,100893.23
2024-05-09T21:00:40.029Z,100894.66
2024-05-09T21:03:11.696Z,100900.75
2024-05-09T21:05:40.252Z,100900.26
2024-05-09T21:08:07.974Z,100901.48
2024-05-09T21:10:36.130Z,100903.78
2024-05-09T21:13:04.689Z,100903.35
2024-05-09T21:15:32.532Z,100904.23
2024-05-09T21:18:00.061Z,100905.14
2024-05-09T21:20:31.531Z,100905.14
2024-05-09T21:23:01.191Z,100908.80
2024-05-09T21:25:29.006Z,100910.71
2024-05-09T21:27:56.527Z,100913.55
2024-05-09T21:30:32.642Z,100914.11
2024-05-09T21:33:09.390Z,100923.08
2024-05-09T21:35:38.043Z,100925.22
2024-05-09T21:38:05.600Z,100929.99
2024-05-09T21:40:35.472Z,100933.45
2024-05-09T21:43:05.385Z,100936.50
2024-05-09T21:45:33.676Z,100935.21
2024-05-09T21:48:03.558Z,100939.20
2024-05-09T21:50:37.154Z,100936.21
2024-05-09T21:53:08.328Z,100940.66
2024-05-09T21:55:35.971Z,100940.52
2024-05-09T21:58:04.140Z,100944.08
2024-05-09T22:00:36.455Z,100951.61
2024-05-09T22:03:10.078Z,100949.15
2024-05-09T22:05:39.109Z,100956.77
2024-05-09T22:08:07.230Z,100956.16
2024-05-09T22:10:36.367Z,100958.05
2024-05-09T22:13:05.951Z,100961.02
2024-05-09T22:15:39.058Z,100963.82
2024-05-09T22:18:09.032Z,100968.45
2024-05-09T22:20:43.169Z,100965.59
2024-05-09T22:23:10.771Z,100969.33
2024-05-09T22:25:39.120Z,100974.27
2024-05-09T22:28:07.015Z,100975.21
2024-05-09T22:30:38.404Z,100979.23
2024-05-09T22:33:08.458Z,100979.28
2024-05-09T22:35:36.974Z,100978.48
2024-05-09T22:38:04.630Z,100974.83
2024-05-09T22:40:42.475Z,100976.27
2024-05-09T22:43:20.669Z,100976.36
2024-05-09T22:45:49.965Z,100975.92
2024-05-09T22:48:18.867Z,100972.41
2024-05-09T22:50:46.634Z,100969.43
2024-05-09T22:53:14.135Z,100966.80
2024-05-09T22:55:41.897Z,100966.59
2024-05-09T22:58:09.391Z,100966.48
2024-05-09T23:00:36.980Z,100967.84
2024-05-09T23:03:04.721Z,100964.79
2024-05-09T23:05:32.619Z,100966.00
2024-05-09T23:08:03.604Z,100967.57
2024-05-09T23:10:35.864Z,100965.81
2024-05-09T23:13:08.635Z,100965.82
2024-05-09T23:15:37.258Z,100965.27
2024-05-09T23:18:05.352Z,100964.64
2024-05-09T23:20:37.793Z,100963.34
2024-05-09T23:23:08.124Z,100962.39
2024-05-09T23:25:36.602Z,100962.55
2024-05-09T23:28:04.570Z,100965.02
2024-05-09T23:30:37.890Z,100960.55
2024-05-09T23:33:09.837Z,100957.73
2024-05-09T23:35:38.096Z,100958.14
2024-05-09T23:38:05.591Z,100958.09
2024-05-09T23:40:39.058Z,100959.58
2024-05-09T23:43:12.703Z,100962.69
2024-05-09T23:45:41.445Z,100964.89
2024-05-09T23:48:09.382Z,100966.31
2024-05-09T23:50:38.895Z,100970.09
2024-05-09T23:53:09.083Z,100969.67
2024-05-09T23:55:37.749Z,100972.55
2024-05-09T23:58:06.262Z,100972.40
